Uacc Ibn Al Atheer — HPBI — position and weather

sailwx.info

Track history (hours):
 
Tides and Currents Weather Stations Pressure Air Temp Water Temp Dewpoint Dewpoint Depression Visibility Wind Speed Wind Dir Waves Ship Positions

Uacc Ibn Al Atheer

Last reported at 2016-Nov-23 17:09 UTC. Time now 2016-Dec-11 08:09 UTC.
Position S 29°43' E 031°46'.
Warning: this ship's position is 17 days out of date.

Length 180 m; draft 7.5 m.

Type: Ship. MMSI: 351616000.

Date/timePositionNaut miles runAvg speedWind from/ knotsBaromVisibWave heightAir tempDewpointWater temp
2016-Nov-23 17:09S 29°43' E 031°46'5 8.4
2016-Nov-23 16:33S 29°43' E 031°40'1111.1
2016-Nov-23 15:33S 29°46' E 031°28'1111.0
2016-Nov-23 14:33S 29°48' E 031°16'1110.8
2016-Nov-23 13:33S 29°52' E 031°04'2 2.2
2016-Nov-23 12:33S 29°53' E 031°02'0 0.0
2016-Nov-23 11:33S 29°53' E 031°02'0 0.0
2016-Nov-23 10:33S 29°53' E 031°02'0 0.0
2016-Nov-23 09:33S 29°53' E 031°02'0 0.0
2016-Nov-23 08:33S 29°53' E 031°02'0 0.0
2016-Nov-23 07:33S 29°53' E 031°02'0 0.0
2016-Nov-23 06:33S 29°53' E 031°02'0 0.0
2016-Nov-23 03:33S 29°53' E 031°02'0 0.0
2016-Nov-23 02:33S 29°53' E 031°02'0 0.0
2016-Nov-23 00:33S 29°53' E 031°02'0 0.0
2016-Nov-22 23:33S 29°53' E 031°02'0 0.0
2016-Nov-22 22:33S 29°53' E 031°02'0 0.0
2016-Nov-22 20:33S 29°53' E 031°02'0 0.0
2016-Nov-22 19:33S 29°53' E 031°02'0 0.0
2016-Nov-22 17:33S 29°53' E 031°02'0 0.0
2016-Nov-22 16:33S 29°53' E 031°02'0 0.0
2016-Nov-22 15:33S 29°53' E 031°02'0 0.0
2016-Nov-22 14:33S 29°53' E 031°02'0 0.0
2016-Nov-22 13:33S 29°53' E 031°02'0 0.0
2016-Nov-22 10:33S 29°53' E 031°02'0 0.0
2016-Nov-22 09:33S 29°53' E 031°02'0 0.0
2016-Nov-22 08:33S 29°53' E 031°02'0 0.0
2016-Nov-22 07:33S 29°53' E 031°02'0 0.0
2016-Nov-22 05:33S 29°53' E 031°02'0 0.0
2016-Nov-22 04:33S 29°53' E 031°02'0 0.0
2016-Nov-22 03:33S 29°53' E 031°02'0 0.0
2016-Nov-22 02:33S 29°53' E 031°02'0 0.0
2016-Nov-21 23:33S 29°53' E 031°02'0 0.0
2016-Nov-21 21:33S 29°53' E 031°02'0 0.0
2016-Nov-21 17:33S 29°53' E 031°02'0 0.0
2016-Nov-21 14:30S 29°53' E 031°02'0 0.0
2016-Nov-21 13:30S 29°53' E 031°02'0 0.0
2016-Nov-21 12:30S 29°53' E 031°02'0 0.0
2016-Nov-21 11:30S 29°53' E 031°02'0 0.0
2016-Nov-21 10:30S 29°53' E 031°02'0 0.0
2016-Nov-21 08:33S 29°53' E 031°02'0 0.0
2016-Nov-21 07:30S 29°53' E 031°02'0 0.0
2016-Nov-21 05:30S 29°53' E 031°02'0 0.0
2016-Nov-21 04:30S 29°53' E 031°02'0 0.0
2016-Nov-21 02:33S 29°53' E 031°02'0 0.0
2016-Nov-21 00:30S 29°53' E 031°02'0 0.0
2016-Nov-20 22:33S 29°53' E 031°02'0 0.0
2016-Nov-20 21:33S 29°53' E 031°02'0 0.0
2016-Nov-20 17:30S 29°53' E 031°02'0 0.0
2016-Nov-20 16:33S 29°53' E 031°02'0 0.0
2016-Nov-20 14:33S 29°53' E 031°02'0 0.0
2016-Nov-20 13:33S 29°53' E 031°02'0 0.0
2016-Nov-20 12:33S 29°53' E 031°02'7 2.2
2016-Nov-20 09:31S 29°49' E 031°08'2 1.9
2016-Nov-20 08:33S 29°49' E 031°10'1 1.0
2016-Nov-20 07:33S 29°49' E 031°11'1010.2
2016-Nov-20 06:33S 29°47' E 031°23'1110.7
2016-Nov-20 05:33S 29°44' E 031°34'1111.0
2016-Nov-20 04:33S 29°41' E 031°46'7 6.5
2016-Nov-20 03:27S 29°36' E 031°52'  
Track history (hours):
 
Tides and Currents Weather Stations Pressure Air Temp Water Temp Dewpoint Dewpoint Depression Visibility Wind Speed Wind Dir Waves Ship Positions

Uacc Ibn Al Atheer

Last reported at 2016-Nov-23 17:09 UTC. Time now 2016-Dec-11 08:09 UTC.
Position S 29°43' E 031°46'.
Warning: this ship's position is 17 days out of date.

Length 180 m; draft 7.5 m.

Type: Ship. MMSI: 351616000.

Date/timePositionNaut miles runAvg speedWind from/ knotsBaromVisibWave heightAir tempDewpointWater temp
2016-Nov-23 17:09S 29°43' E 031°46'5 8.4
2016-Nov-23 16:33S 29°43' E 031°40'1111.1
2016-Nov-23 15:33S 29°46' E 031°28'1111.0
2016-Nov-23 14:33S 29°48' E 031°16'1110.8
2016-Nov-23 13:33S 29°52' E 031°04'2 2.2
2016-Nov-23 12:33S 29°53' E 031°02'0 0.0
2016-Nov-23 11:33S 29°53' E 031°02'0 0.0
2016-Nov-23 10:33S 29°53' E 031°02'0 0.0
2016-Nov-23 09:33S 29°53' E 031°02'0 0.0
2016-Nov-23 08:33S 29°53' E 031°02'0 0.0
2016-Nov-23 07:33S 29°53' E 031°02'0 0.0
2016-Nov-23 06:33S 29°53' E 031°02'0 0.0
2016-Nov-23 03:33S 29°53' E 031°02'0 0.0
2016-Nov-23 02:33S 29°53' E 031°02'0 0.0
2016-Nov-23 00:33S 29°53' E 031°02'0 0.0
2016-Nov-22 23:33S 29°53' E 031°02'0 0.0
2016-Nov-22 22:33S 29°53' E 031°02'0 0.0
2016-Nov-22 20:33S 29°53' E 031°02'0 0.0
2016-Nov-22 19:33S 29°53' E 031°02'0 0.0
2016-Nov-22 17:33S 29°53' E 031°02'0 0.0
2016-Nov-22 16:33S 29°53' E 031°02'0 0.0
2016-Nov-22 15:33S 29°53' E 031°02'0 0.0
2016-Nov-22 14:33S 29°53' E 031°02'0 0.0
2016-Nov-22 13:33S 29°53' E 031°02'0 0.0
2016-Nov-22 10:33S 29°53' E 031°02'0 0.0
2016-Nov-22 09:33S 29°53' E 031°02'0 0.0
2016-Nov-22 08:33S 29°53' E 031°02'0 0.0
2016-Nov-22 07:33S 29°53' E 031°02'0 0.0
2016-Nov-22 05:33S 29°53' E 031°02'0 0.0
2016-Nov-22 04:33S 29°53' E 031°02'0 0.0
2016-Nov-22 03:33S 29°53' E 031°02'0 0.0
2016-Nov-22 02:33S 29°53' E 031°02'0 0.0
2016-Nov-21 23:33S 29°53' E 031°02'0 0.0
2016-Nov-21 21:33S 29°53' E 031°02'0 0.0
2016-Nov-21 17:33S 29°53' E 031°02'0 0.0
2016-Nov-21 14:30S 29°53' E 031°02'0 0.0
2016-Nov-21 13:30S 29°53' E 031°02'0 0.0
2016-Nov-21 12:30S 29°53' E 031°02'0 0.0
2016-Nov-21 11:30S 29°53' E 031°02'0 0.0
2016-Nov-21 10:30S 29°53' E 031°02'0 0.0
2016-Nov-21 08:33S 29°53' E 031°02'0 0.0
2016-Nov-21 07:30S 29°53' E 031°02'0 0.0
2016-Nov-21 05:30S 29°53' E 031°02'0 0.0
2016-Nov-21 04:30S 29°53' E 031°02'0 0.0
2016-Nov-21 02:33S 29°53' E 031°02'0 0.0
2016-Nov-21 00:30S 29°53' E 031°02'0 0.0
2016-Nov-20 22:33S 29°53' E 031°02'0 0.0
2016-Nov-20 21:33S 29°53' E 031°02'0 0.0
2016-Nov-20 17:30S 29°53' E 031°02'0 0.0
2016-Nov-20 16:33S 29°53' E 031°02'0 0.0
2016-Nov-20 14:33S 29°53' E 031°02'0 0.0
2016-Nov-20 13:33S 29°53' E 031°02'0 0.0
2016-Nov-20 12:33S 29°53' E 031°02'7 2.2
2016-Nov-20 09:31S 29°49' E 031°08'2 1.9
2016-Nov-20 08:33S 29°49' E 031°10'1 1.0
2016-Nov-20 07:33S 29°49' E 031°11'1010.2
2016-Nov-20 06:33S 29°47' E 031°23'1110.7
2016-Nov-20 05:33S 29°44' E 031°34'1111.0
2016-Nov-20 04:33S 29°41' E 031°46'7 6.5
2016-Nov-20 03:27S 29°36' E 031°52'  

Dump ship's entire track history